Ellen Mcallister — WDG3673 — position and weather

sailwx.info

Track history (hours):
 
Tides and Currents Weather Stations Pressure Air Temp Water Temp Dewpoint Dewpoint Depression Visibility Wind Speed Wind Dir Waves Ship Positions

Ellen Mcallister

Owner: McAllister Towing & Transportation Inc., Staten Island, NY. More information available from US FCC via Universal Licensing System and Coast Guard Vessel Documentation Center.

Last reported at 2015-May-24 23:18 UTC. Time now 2015-May-25 09:35 UTC.
Position N 40°39' W 074°09'.

Length 35 m.

Type: Tug. MMSI: 366836590.

Date/timePositionNaut miles runAvg speedWind from/ knotsBaromVisibWave heightAir tempDewpointWater temp
2015-May-24 23:18N 40°39' W 074°09'1 1.3
2015-May-24 22:31N 40°40' W 074°08'0 0.4
2015-May-24 21:33N 40°41' W 074°09'3 0.6
2015-May-24 15:33N 40°40' W 074°04'0 0.0
2015-May-24 14:33N 40°40' W 074°04'1 0.6
2015-May-24 12:32N 40°39' W 074°03'4 0.3
2015-May-23 23:24N 40°40' W 074°08'0 0.1
2015-May-23 22:22N 40°40' W 074°08'0 0.0
2015-May-23 18:06N 40°40' W 074°08'2 0.0
2015-May-22 10:32N 40°42' W 074°08'2 0.1
2015-May-21 09:30N 40°39' W 074°09'1 1.3
2015-May-21 08:30N 40°40' W 074°08'0 0.0
2015-May-21 07:29N 40°40' W 074°08'0 0.3
2015-May-21 06:16N 40°41' W 074°09'  
2015-May-18 22:06N 40°41' W 074°09'0 0.1
2015-May-18 21:30N 40°41' W 074°09'1 0.2
2015-May-18 14:30N 40°39' W 074°09'4 1.3
2015-May-18 11:25N 40°38' W 074°04'5 4.0
2015-May-18 10:15N 40°39' W 074°10'0 0.1
2015-May-18 06:04N 40°38' W 074°10'2 0.5
2015-May-18 01:19N 40°41' W 074°09'5 2.6
2015-May-17 23:25N 40°38' W 074°03'4 0.4
2015-May-17 13:13N 40°40' W 074°08'0 0.3
2015-May-17 11:33N 40°40' W 074°08'3 0.3
2015-May-16 23:17N 40°38' W 074°12'6 0.7
2015-May-16 14:30N 40°39' W 074°04'3 0.9
2015-May-16 10:33N 40°39' W 074°09'1 0.0
2015-May-15 09:30N 40°40' W 074°08'  
Track history (hours):
 
Tides and Currents Weather Stations Pressure Air Temp Water Temp Dewpoint Dewpoint Depression Visibility Wind Speed Wind Dir Waves Ship Positions

Ellen Mcallister

Owner: McAllister Towing & Transportation Inc., Staten Island, NY. More information available from US FCC via Universal Licensing System and Coast Guard Vessel Documentation Center.

Last reported at 2015-May-24 23:18 UTC. Time now 2015-May-25 09:35 UTC.
Position N 40°39' W 074°09'.

Length 35 m.

Type: Tug. MMSI: 366836590.

Date/timePositionNaut miles runAvg speedWind from/ knotsBaromVisibWave heightAir tempDewpointWater temp
2015-May-24 23:18N 40°39' W 074°09'1 1.3
2015-May-24 22:31N 40°40' W 074°08'0 0.4
2015-May-24 21:33N 40°41' W 074°09'3 0.6
2015-May-24 15:33N 40°40' W 074°04'0 0.0
2015-May-24 14:33N 40°40' W 074°04'1 0.6
2015-May-24 12:32N 40°39' W 074°03'4 0.3
2015-May-23 23:24N 40°40' W 074°08'0 0.1
2015-May-23 22:22N 40°40' W 074°08'0 0.0
2015-May-23 18:06N 40°40' W 074°08'2 0.0
2015-May-22 10:32N 40°42' W 074°08'2 0.1
2015-May-21 09:30N 40°39' W 074°09'1 1.3
2015-May-21 08:30N 40°40' W 074°08'0 0.0
2015-May-21 07:29N 40°40' W 074°08'0 0.3
2015-May-21 06:16N 40°41' W 074°09'  
2015-May-18 22:06N 40°41' W 074°09'0 0.1
2015-May-18 21:30N 40°41' W 074°09'1 0.2
2015-May-18 14:30N 40°39' W 074°09'4 1.3
2015-May-18 11:25N 40°38' W 074°04'5 4.0
2015-May-18 10:15N 40°39' W 074°10'0 0.1
2015-May-18 06:04N 40°38' W 074°10'2 0.5
2015-May-18 01:19N 40°41' W 074°09'5 2.6
2015-May-17 23:25N 40°38' W 074°03'4 0.4
2015-May-17 13:13N 40°40' W 074°08'0 0.3
2015-May-17 11:33N 40°40' W 074°08'3 0.3
2015-May-16 23:17N 40°38' W 074°12'6 0.7
2015-May-16 14:30N 40°39' W 074°04'3 0.9
2015-May-16 10:33N 40°39' W 074°09'1 0.0
2015-May-15 09:30N 40°40' W 074°08'  

Dump ship's entire track history